首页
METAR-TAF:

METAR-TAF

机场 :

Mosinee, 威斯康辛州, 美国

纬度: 44-47N, 经度: 089-40W, 海拔: 389米

当前天气观测

该预报发布于28分钟前的21:55 UTC
风速11节,风向西转西北,有时为16节阵风
温度 4°C
湿度 87%
气压 1003 hPa
能見度: 16.1公里
阴天层高于1900英尺
小毛毛雨

METAR: KCWA 292155Z 30011G16KT 10SM -DZ OVC019 04/02 A2961

时间: 17:23 (22:23 UTC)

预报

该预报发布于4小时和52分钟前的17:31 UTC
预报有效从29日的 18点(UTC)到 30日的 18点(UTC)
风速10节,风向北转西北,有时为15节阵风
能見度: 10公里
阴天层高于500英尺
小阵雨
短暂存在
从 29日的 18点(UTC)到 29日的 22点(UTC)
能見度: 8.0公里
散云层高于500英尺
阴天层高于1200英尺
小阵雨, 轻雾
从 29日的 2200点(UTC)
风速14节,风向西北,有时为21节阵风
能見度: 10公里
散云层高于800英尺
阴天层高于1500英尺
附近有阵雨
短暂存在
从 29日的 22点(UTC)到 30日的 01点(UTC)
能見度: 6.4公里
多云层高于800英尺
小阵雨, 轻雾
从 30日的 0100点(UTC)
风速12节,风向西北,有时为18节阵风
能見度: 10公里
阴天层高于1500英尺
附近有阵雨
从 30日的 0400点(UTC)
风速11节,风向西北,有时为16节阵风
能見度: 10公里
散云层高于1500英尺
阴天层高于2500英尺
从 30日的 1000点(UTC)
风速10节,风向北转西北
能見度: 10公里
多云层高于2500英尺
阴天层高于6000英尺
从 30日的 1300点(UTC)
风速11节,风向北转西北
能見度: 10公里
散云层高于4500英尺
多云层高于25000英尺

TAF: KCWA 291731Z 2918/3018 33010G15KT P6SM -SHRA OVC005 TEMPO 2918/2922 5SM -SHRA BR SCT005 OVC012 FM292200 32014G21KT P6SM VCSH SCT008 OVC015 TEMPO 2922/3001 4SM -SHRA BR BKN008 FM300100 32012G18KT P6SM VCSH OVC015 FM300400 32011G16KT P6SM SCT015 OVC025 FM301000 33010KT P6SM BKN025 OVC060 FM301300 33011KT P6SM SCT045 BKN250

超过4000个机场的气象观测和天气预报(METAR&TAF报告)。

可查询的气象台以黄色和红色小点在地图上表示。

将鼠标移到小点上方,可查看气象台名称。

然后点击查看天气观测和预报。

如需切换地图:点击带黑十字的绿色按钮放大地图;点击带横线的绿色按钮缩小地图;或者点击绿色箭头查看邻近地区的地图。


METAR-TAF: